createdAt,value
2023-02-13T08:22:45.611Z,5.89
2023-02-13T08:25:13.416Z,5.85
2023-02-13T08:27:40.326Z,5.88
2023-02-13T08:30:08.566Z,5.86
2023-02-13T08:32:44.933Z,5.80
2023-02-13T08:35:19.767Z,5.86
2023-02-13T08:37:49.775Z,5.95
2023-02-13T08:40:16.607Z,5.95
2023-02-13T08:42:43.785Z,6.06
2023-02-13T08:45:11.988Z,6.06
2023-02-13T08:47:40.087Z,6.16
2023-02-13T08:50:07.624Z,6.31
2023-02-13T08:52:34.472Z,6.30
2023-02-13T08:55:03.649Z,6.36
2023-02-13T08:57:31.491Z,6.38
2023-02-13T08:59:58.388Z,6.40
2023-02-13T09:02:25.287Z,6.50
2023-02-13T09:04:52.351Z,6.65
2023-02-13T09:07:19.315Z,6.77
2023-02-13T09:09:46.168Z,6.72
2023-02-13T09:12:13.776Z,6.74
2023-02-13T09:14:41.089Z,6.80
2023-02-13T09:17:08.041Z,6.95
2023-02-13T09:19:35.030Z,6.98
2023-02-13T09:22:01.895Z,7.01
2023-02-13T09:24:28.685Z,7.04
2023-02-13T09:26:56.843Z,7.09
2023-02-13T09:29:24.011Z,7.20
2023-02-13T09:31:51.436Z,7.26
2023-02-13T09:34:18.522Z,7.33
2023-02-13T09:36:45.384Z,7.41
2023-02-13T09:39:12.211Z,7.47
2023-02-13T09:41:41.528Z,7.54
2023-02-13T09:44:37.769Z,7.58
2023-02-13T09:47:39.568Z,7.63
2023-02-13T09:50:25.401Z,7.69
2023-02-13T09:52:53.865Z,7.73
2023-02-13T09:55:48.310Z,7.79
2023-02-13T09:58:30.342Z,7.83
2023-02-13T10:00:58.433Z,7.89
2023-02-13T10:03:31.935Z,7.93
2023-02-13T10:06:01.921Z,7.98
2023-02-13T10:08:59.719Z,8.04
2023-02-13T10:11:45.243Z,8.11
2023-02-13T10:14:14.911Z,8.15
2023-02-13T10:16:52.176Z,8.22
2023-02-13T10:19:24.475Z,8.25
2023-02-13T10:22:06.469Z,8.31
2023-02-13T10:24:38.201Z,8.36
2023-02-13T10:27:26.208Z,8.41
2023-02-13T10:30:09.658Z,8.48
2023-02-13T10:33:19.674Z,8.54
2023-02-13T10:36:03.342Z,8.61
2023-02-13T10:38:33.234Z,8.65
2023-02-13T10:41:35.253Z,8.70
2023-02-13T10:44:30.948Z,8.78
2023-02-13T10:47:15.759Z,8.85
2023-02-13T10:50:12.122Z,8.91
2023-02-13T10:53:08.701Z,8.98
2023-02-13T10:55:38.122Z,9.03
2023-02-13T10:58:13.895Z,9.09
2023-02-13T11:00:57.917Z,9.13
2023-02-13T11:03:27.064Z,9.21
2023-02-13T11:05:55.179Z,9.25
2023-02-13T11:08:34.998Z,9.32
2023-02-13T11:11:01.860Z,9.38
2023-02-13T11:13:30.288Z,9.44
2023-02-13T11:16:10.810Z,9.49
2023-02-13T11:18:40.644Z,9.55
2023-02-13T11:21:23.993Z,9.61
2023-02-13T11:23:53.630Z,9.67
2023-02-13T11:26:39.930Z,9.75
2023-02-13T11:29:27.097Z,9.81
2023-02-13T11:32:15.930Z,9.86
2023-02-13T11:34:42.832Z,9.91
2023-02-13T11:37:12.673Z,9.96
2023-02-13T11:39:41.705Z,10.00
2023-02-13T11:42:32.057Z,10.05
2023-02-13T11:45:02.402Z,10.08
2023-02-13T11:47:41.424Z,10.13
2023-02-13T11:50:29.995Z,10.17
2023-02-13T11:53:08.835Z,10.19
2023-02-13T11:55:40.734Z,10.21
2023-02-13T11:58:10.660Z,10.25
2023-02-13T12:00:41.938Z,10.28
2023-02-13T12:03:30.241Z,10.31
2023-02-13T12:06:15.698Z,10.32
2023-02-13T12:08:46.005Z,10.35
2023-02-13T12:11:47.886Z,10.35
2023-02-13T12:14:30.997Z,10.38
2023-02-13T12:17:05.440Z,10.39
2023-02-13T12:19:44.419Z,10.42
2023-02-13T12:22:40.205Z,10.43
2023-02-13T12:25:13.499Z,10.44
2023-02-13T12:27:51.505Z,10.45
2023-02-13T12:30:27.401Z,10.46
2023-02-13T12:33:17.251Z,10.49
2023-02-13T12:36:06.650Z,10.49
2023-02-13T12:38:42.546Z,10.53
2023-02-13T12:41:18.562Z,10.53
2023-02-13T12:44:19.241Z,10.56
2023-02-13T12:47:14.961Z,10.60
2023-02-13T12:50:01.745Z,10.62
2023-02-13T12:52:49.389Z,10.65
2023-02-13T12:55:43.619Z,10.68
2023-02-13T12:58:44.088Z,10.69
2023-02-13T13:01:17.783Z,10.71
2023-02-13T13:04:02.592Z,10.72
2023-02-13T13:06:36.348Z,10.74
2023-02-13T13:09:36.529Z,10.78
2023-02-13T13:12:34.271Z,10.80
2023-02-13T13:15:13.327Z,10.83
2023-02-13T13:17:49.319Z,10.84
2023-02-13T13:20:49.484Z,10.86
2023-02-13T13:23:21.189Z,10.88
2023-02-13T13:26:07.564Z,10.91
2023-02-13T13:28:55.569Z,10.93
2023-02-13T13:31:26.504Z,10.93
2023-02-13T13:33:56.565Z,10.95
2023-02-13T13:36:23.340Z,10.95
2023-02-13T13:39:06.975Z,10.95
2023-02-13T13:41:48.720Z,10.99
2023-02-13T13:44:49.740Z,11.00
2023-02-13T13:47:20.965Z,11.02
2023-02-13T13:49:57.161Z,11.04
2023-02-13T13:52:35.956Z,11.07
2023-02-13T13:55:04.664Z,11.08
2023-02-13T13:57:34.307Z,11.10
2023-02-13T14:00:12.033Z,11.12
2023-02-13T14:02:46.692Z,11.13
2023-02-13T14:05:29.637Z,11.15
2023-02-13T14:08:00.359Z,11.16
2023-02-13T14:10:27.175Z,11.15
2023-02-13T14:12:57.006Z,11.15
2023-02-13T14:15:44.782Z,11.16
2023-02-13T14:18:15.737Z,11.15
2023-02-13T14:20:53.418Z,11.15
2023-02-13T14:23:23.636Z,11.18
2023-02-13T14:25:51.181Z,11.19
2023-02-13T14:28:25.766Z,11.19
2023-02-13T14:31:04.395Z,11.20
2023-02-13T14:33:32.222Z,11.21
2023-02-13T14:36:08.159Z,11.24
2023-02-13T14:38:35.972Z,11.25
2023-02-13T14:41:02.870Z,11.28
2023-02-13T14:43:37.591Z,11.32
2023-02-13T14:46:14.406Z,11.34
2023-02-13T14:48:56.737Z,11.37
2023-02-13T14:51:46.687Z,11.38
2023-02-13T14:54:20.597Z,11.42
2023-02-13T14:56:49.485Z,11.44
2023-02-13T14:59:18.848Z,11.46
2023-02-13T15:02:07.988Z,11.46
2023-02-13T15:04:49.678Z,11.48
2023-02-13T15:07:23.380Z,11.49
2023-02-13T15:09:53.167Z,11.51
2023-02-13T15:12:32.246Z,11.54
2023-02-13T15:15:01.619Z,11.53
2023-02-13T15:17:38.398Z,11.53
2023-02-13T15:20:29.745Z,11.56
2023-02-13T15:22:57.619Z,11.56
2023-02-13T15:25:35.337Z,11.59
2023-02-13T15:28:04.706Z,11.58
2023-02-13T15:30:36.976Z,11.59
2023-02-13T15:33:19.790Z,11.60
2023-02-13T15:35:47.106Z,11.63
2023-02-13T15:38:29.137Z,11.63
2023-02-13T15:41:06.653Z,11.63
2023-02-13T15:43:40.380Z,11.65
2023-02-13T15:46:18.185Z,11.64
2023-02-13T15:48:46.108Z,11.64
2023-02-13T15:51:24.719Z,11.64
2023-02-13T15:53:53.664Z,11.64
2023-02-13T15:56:20.744Z,11.61
2023-02-13T15:58:47.798Z,11.60
2023-02-13T16:01:15.094Z,11.60
2023-02-13T16:03:43.408Z,11.58
2023-02-13T16:06:16.308Z,11.56
2023-02-13T16:08:52.999Z,11.56
2023-02-13T16:11:25.840Z,11.54
2023-02-13T16:14:00.554Z,11.53
2023-02-13T16:16:29.222Z,11.51
2023-02-13T16:18:56.363Z,11.50
2023-02-13T16:21:24.679Z,11.48
2023-02-13T16:23:58.230Z,11.47
2023-02-13T16:26:25.352Z,11.44
2023-02-13T16:28:52.288Z,11.43
2023-02-13T16:31:19.334Z,11.41
2023-02-13T16:33:46.192Z,11.39
2023-02-13T16:36:12.947Z,11.37
2023-02-13T16:38:43.433Z,11.36
2023-02-13T16:41:19.293Z,11.34
2023-02-13T16:44:00.210Z,11.31
2023-02-13T16:46:29.958Z,11.29
2023-02-13T16:48:56.957Z,11.26
2023-02-13T16:51:44.798Z,11.23
2023-02-13T16:54:11.728Z,11.21
2023-02-13T16:56:41.720Z,11.19
2023-02-13T16:59:17.536Z,11.16
2023-02-13T17:01:44.519Z,11.14
2023-02-13T17:04:29.315Z,11.13
2023-02-13T17:06:56.587Z,11.11
2023-02-13T17:09:23.688Z,11.08
2023-02-13T17:11:52.128Z,11.05
2023-02-13T17:14:20.594Z,11.04
2023-02-13T17:16:48.747Z,11.01
2023-02-13T17:19:15.768Z,11.00
2023-02-13T17:21:42.708Z,10.99
2023-02-13T17:24:16.579Z,10.97
2023-02-13T17:26:43.404Z,10.93
2023-02-13T17:29:10.355Z,10.92
2023-02-13T17:31:37.387Z,10.90
2023-02-13T17:34:05.353Z,10.87
2023-02-13T17:36:32.206Z,10.86
2023-02-13T17:38:59.111Z,10.83
2023-02-13T17:41:25.966Z,10.81
2023-02-13T17:43:52.807Z,10.79
2023-02-13T17:46:20.009Z,10.76
2023-02-13T17:48:46.904Z,10.74
2023-02-13T17:51:14.707Z,10.73
2023-02-13T17:53:41.726Z,10.70
2023-02-13T17:56:08.572Z,10.67
2023-02-13T17:58:35.461Z,10.65
2023-02-13T18:01:02.607Z,10.64
2023-02-13T18:03:29.689Z,10.60
2023-02-13T18:05:56.549Z,10.59
2023-02-13T18:08:24.619Z,10.56
2023-02-13T18:10:51.620Z,10.55
2023-02-13T18:13:18.632Z,10.51
2023-02-13T18:15:46.453Z,10.48
2023-02-13T18:18:16.164Z,10.46
2023-02-13T18:20:44.417Z,10.44
2023-02-13T18:23:11.620Z,10.41
2023-02-13T18:25:38.465Z,10.41
2023-02-13T18:28:05.365Z,10.40
2023-02-13T18:30:32.318Z,10.39
2023-02-13T18:32:59.458Z,10.41
2023-02-13T18:35:26.477Z,10.42
2023-02-13T18:37:53.744Z,10.41
2023-02-13T18:40:21.062Z,10.42
2023-02-13T18:42:49.717Z,10.42
2023-02-13T18:45:17.147Z,10.43
2023-02-13T18:47:44.376Z,10.43
2023-02-13T18:50:11.479Z,10.43
2023-02-13T18:52:38.339Z,10.44
2023-02-13T18:55:07.347Z,10.46
2023-02-13T18:57:34.533Z,10.44
2023-02-13T19:00:01.368Z,10.46
2023-02-13T19:02:28.261Z,10.47
2023-02-13T19:04:55.224Z,10.48
2023-02-13T19:07:23.400Z,10.47
2023-02-13T19:09:50.262Z,10.49
2023-02-13T19:12:17.112Z,10.50
2023-02-13T19:14:44.330Z,10.49
2023-02-13T19:17:11.352Z,10.49
2023-02-13T19:19:38.291Z,10.50
2023-02-13T19:22:05.149Z,10.50
2023-02-13T19:24:32.085Z,10.50
2023-02-13T19:27:00.549Z,10.51
2023-02-13T19:29:27.468Z,10.50
2023-02-13T19:31:54.487Z,10.51
2023-02-13T19:34:21.408Z,10.51
2023-02-13T19:36:48.258Z,10.52
2023-02-13T19:39:16.638Z,10.50
2023-02-13T19:41:44.314Z,10.50
2023-02-13T19:44:11.238Z,10.49
2023-02-13T19:46:38.773Z,10.48
2023-02-13T19:49:06.287Z,10.48
2023-02-13T19:51:34.643Z,10.47
2023-02-13T19:54:06.291Z,10.46
2023-02-13T19:56:35.445Z,10.46
2023-02-13T19:59:02.568Z,10.45
2023-02-13T20:01:30.162Z,10.44
2023-02-13T20:03:57.625Z,10.44
2023-02-13T20:06:28.016Z,10.44
2023-02-13T20:08:58.006Z,10.44
2023-02-13T20:11:24.821Z,10.44
2023-02-13T20:14:00.901Z,10.45
2023-02-13T20:16:32.935Z,10.45
2023-02-13T20:19:03.322Z,10.46
2023-02-13T20:21:30.157Z,10.44
2023-02-13T20:23:56.992Z,10.45
2023-02-13T20:26:24.455Z,10.45
2023-02-13T20:28:51.335Z,10.45
2023-02-13T20:31:20.430Z,10.44
2023-02-13T20:33:48.352Z,10.44
2023-02-13T20:36:18.401Z,10.43
2023-02-13T20:38:45.567Z,10.41
2023-02-13T20:41:17.897Z,10.39
2023-02-13T20:43:45.218Z,10.37
2023-02-13T20:46:12.968Z,10.36
2023-02-13T20:48:40.809Z,10.34
2023-02-13T20:51:11.793Z,10.31
2023-02-13T21:00:13.485Z,10.30
2023-02-13T21:02:40.402Z,10.29
2023-02-13T21:05:07.814Z,10.29
2023-02-13T21:07:34.736Z,10.29
2023-02-13T21:10:01.627Z,10.30
2023-02-13T21:12:28.616Z,10.30
2023-02-13T21:14:55.406Z,10.32
2023-02-13T21:17:22.234Z,10.32
2023-02-13T21:19:49.166Z,10.32
2023-02-13T21:22:16.110Z,10.36
2023-02-13T21:24:43.537Z,10.36
2023-02-13T21:27:11.097Z,10.37
2023-02-13T21:29:38.477Z,10.39
2023-02-13T21:32:05.818Z,10.41
2023-02-13T21:34:33.767Z,10.41
2023-02-13T21:37:00.657Z,10.41
2023-02-13T21:39:27.702Z,10.42
2023-02-13T21:41:55.361Z,10.43
2023-02-13T21:44:22.391Z,10.45
2023-02-13T21:46:49.958Z,10.45
2023-02-13T21:49:19.140Z,10.47
2023-02-13T21:51:47.554Z,10.48
2023-02-13T21:54:14.827Z,10.47
2023-02-13T21:56:42.756Z,10.50
2023-02-13T21:59:12.056Z,10.50
2023-02-13T22:01:39.039Z,10.52
2023-02-13T22:04:08.189Z,10.54
2023-02-13T22:06:36.830Z,10.53
2023-02-13T22:09:10.036Z,10.55
2023-02-13T22:11:37.582Z,10.54
2023-02-13T22:14:06.160Z,10.55
2023-02-13T22:16:35.815Z,10.53
2023-02-13T22:19:03.322Z,10.55
2023-02-13T22:21:35.100Z,10.55
2023-02-13T22:24:02.449Z,10.56
2023-02-13T22:26:31.559Z,10.57
2023-02-13T22:29:04.572Z,10.58
2023-02-13T22:31:31.638Z,10.57
2023-02-13T22:34:03.940Z,10.57
2023-02-13T22:36:38.611Z,10.59
